Nearby METAR Reports

 

KHOT - Hot Springs, Arkansas, USA
Distance from station: W 8mi, 14km
Updated: 02/19/2018 1:53am
Mist, Overcast
Mist, Overcast
 Wind from W
Wind: W 3 mph , 6 km/h
Temperature: 55°F , 13°C
Dew Point: 55°F , 13°C
Humidity: 100%
Barometer: 29.99 inHg , 1015.6 hPa
Summary: Mist
Clouds: Overcast
Visibility: 5 miles , 8 km
Cloud details: Mostly cloudy 800 ft
Overcast 1100 ft
2018/02/19 07:53 KHOT 190753Z AUTO 28003KT 5SM BR BKN008 OVC011 13/13 A2999 RMK AO2 SLP154 T01330133 $
KMWT - Mount Ida, Arkansas, USA
Distance from station: W 36mi, 58km
Updated: 02/19/2018 1:53am
Mostly cloudy
Mostly cloudy
 Wind from varies
Wind: varies 6 mph , 9 km/h
Temperature: 61°F , 16°C
Dew Point: 61°F , 16°C
Humidity: 100%
Barometer: 29.93 inHg , 1013.5 hPa
Clouds: Mostly cloudy
Visibility: 10 miles , 16 km
Cloud details: Mostly cloudy 1200 ft
2018/02/19 07:53 KMWT 190753Z AUTO VRB05KT 10SM BKN012 16/16 A2993 RMK AO2 SLP135 T01610156
 
KLIT - Little Rock, Arkansas, USA
Distance from station: ENE 45mi, 73km
Updated: 02/19/2018 2:03am
Fog, Overcast
Fog, Overcast
 Wind from calm
Wind: Calm
Temperature: 52°F , 11°C
Dew Point: 52°F , 11°C
Humidity: 100%
Barometer: 30.00 inHg , 1015.9 hPa
Summary: Fog
Clouds: Overcast
Visibility: 1/8 mile , 2 km
Cloud details: Overcast 200 ft
2018/02/19 08:03 KLIT 190803Z 00000KT 1/8SM FG VV002 11/11 A3000 RMK AO2 T01110111 RVRNO $
KLRF - Little Rock Afb, Arkansas, USA
Distance from station: NE 56mi, 89km
Updated: 02/19/2018 2:06am
Mist, Overcast
Mist, Overcast
 Wind from S
Wind: S 5 mph , 7 km/h
Temperature: 54°F , 12°C
Dew Point: 54°F , 12°C
Humidity: 100%
Barometer: 29.99 inHg , 1015.6 hPa
Summary: Mist
Clouds: Overcast
Visibility: 5/8 mile , 8 km
Cloud details: Overcast 100 ft
2018/02/19 08:06 KLRF 190806Z AUTO 18004KT 5/8SM R25/4000V6000FT BR OVC001 12/12 A2999 RMK AO2 SLP159